Pagedale, Missouri
Current Conditions -  °F | °C
As of 3:18 PM on Sunday 23 Nov 2014 (Local Time) from KSTL Reporting Station
Light Rain Light Rain  
Wind Chill: 55°   Ceiling: 700
Heat Index: 55°   Visibility: 3mi
Dew Point: 54°   Wind: 10mph
Humidity: 94%   Direction: 120°ESE
Pressure: 29.36"   Gusts: NA
Location:  38.6807°N, 90.3068°W
Report Text: KSTL 232118Z 12009KT 3SM -RA BR OVC007 13/12 A2936 RMK AO2 P0003
Loading
Personal Weather Stations






























Interactive Weather Map New forecast layout! Learn more

10-Day Weather Forecast

Advertisements
Track Severe Weather on mobile